createdAt,value
2023-04-29T00:02:32.471Z,46.40
2023-04-29T00:05:25.744Z,46.10
2023-04-29T00:08:19.616Z,46.10
2023-04-29T00:11:13.535Z,46.00
2023-04-29T00:14:06.564Z,46.10
2023-04-29T00:16:59.907Z,46.00
2023-04-29T00:19:53.579Z,46.00
2023-04-29T00:22:46.481Z,45.90
2023-04-29T00:25:39.571Z,45.90
2023-04-29T00:28:34.024Z,45.90
2023-04-29T00:31:27.640Z,46.00
2023-04-29T00:34:20.658Z,46.50
2023-04-29T00:37:13.460Z,45.90
2023-04-29T00:40:08.667Z,45.90
2023-04-29T00:43:01.193Z,45.90
2023-04-29T00:45:55.970Z,46.50
2023-04-29T00:48:50.572Z,46.00
2023-04-29T00:51:43.888Z,46.00
2023-04-29T00:54:38.687Z,46.20
2023-04-29T00:57:31.847Z,46.30
2023-04-29T01:00:26.288Z,46.30
2023-04-29T01:03:21.498Z,46.30
2023-04-29T01:06:25.224Z,46.20
2023-04-29T01:09:35.669Z,46.30
2023-04-29T01:12:36.163Z,46.30
2023-04-29T01:15:34.546Z,46.40
2023-04-29T01:18:33.029Z,46.20
2023-04-29T01:21:26.783Z,46.20
2023-04-29T01:24:20.732Z,46.00
2023-04-29T01:27:24.904Z,46.00
2023-04-29T01:30:26.772Z,46.30
2023-04-29T01:33:24.537Z,46.10
2023-04-29T01:36:27.670Z,46.10
2023-04-29T01:39:32.489Z,46.00
2023-04-29T01:42:30.927Z,46.00
2023-04-29T01:45:24.814Z,45.90
2023-04-29T01:48:19.093Z,45.90
2023-04-29T01:51:14.096Z,45.80
2023-04-29T01:54:07.392Z,45.90
2023-04-29T01:57:01.830Z,45.80
2023-04-29T01:59:54.631Z,45.80
2023-04-29T02:02:48.019Z,45.90
2023-04-29T02:05:41.721Z,45.90
2023-04-29T02:08:34.623Z,45.80
2023-04-29T02:11:27.758Z,45.80
2023-04-29T02:14:22.230Z,45.80
2023-04-29T02:17:15.525Z,45.90
2023-04-29T02:20:10.248Z,45.90
2023-04-29T02:23:03.587Z,45.90
2023-04-29T02:25:56.700Z,46.00
2023-04-29T02:28:49.545Z,46.00
2023-04-29T02:31:44.237Z,46.10
2023-04-29T02:34:38.391Z,46.30
2023-04-29T02:37:31.810Z,46.40
2023-04-29T02:40:26.964Z,46.20
2023-04-29T02:43:20.399Z,46.10
2023-04-29T02:46:13.660Z,46.10
2023-04-29T02:49:07.841Z,46.20
2023-04-29T02:52:00.712Z,46.10
2023-04-29T02:54:53.499Z,46.00
2023-04-29T02:57:46.813Z,46.10
2023-04-29T03:00:41.465Z,46.10
2023-04-29T03:03:34.439Z,46.00
2023-04-29T03:06:29.029Z,45.90
2023-04-29T03:09:22.764Z,46.00
2023-04-29T03:12:16.772Z,46.30
2023-04-29T03:15:10.757Z,46.00
2023-04-29T03:18:04.873Z,45.90
2023-04-29T03:20:57.626Z,46.00
2023-04-29T03:23:53.886Z,45.90
2023-04-29T03:26:46.687Z,45.90
2023-04-29T03:29:39.937Z,45.90
2023-04-29T03:32:33.724Z,45.90
2023-04-29T03:35:26.773Z,45.80
2023-04-29T03:38:19.580Z,45.90
2023-04-29T03:41:13.879Z,45.90
2023-04-29T03:44:06.763Z,45.90
2023-04-29T03:46:59.586Z,45.90
2023-04-29T03:49:53.612Z,45.80
2023-04-29T03:52:46.889Z,45.70
2023-04-29T03:55:39.669Z,45.70
2023-04-29T03:58:33.856Z,45.70
2023-04-29T04:01:26.802Z,45.80
2023-04-29T04:04:19.681Z,46.00
2023-04-29T04:07:12.546Z,45.80
2023-04-29T04:10:05.992Z,45.90
2023-04-29T04:12:59.738Z,45.90
2023-04-29T04:15:54.000Z,45.90
2023-04-29T04:18:47.756Z,45.80
2023-04-29T04:21:41.044Z,45.80
2023-04-29T04:24:35.088Z,45.90
2023-04-29T04:27:28.352Z,45.80
2023-04-29T04:30:21.588Z,45.70
2023-04-29T04:33:16.987Z,45.60
2023-04-29T04:36:09.766Z,45.70
2023-04-29T04:39:02.644Z,45.60
2023-04-29T04:41:55.734Z,45.60
2023-04-29T04:44:48.509Z,45.50
2023-04-29T04:47:42.506Z,45.60
2023-04-29T04:50:36.978Z,45.60
2023-04-29T04:53:29.654Z,45.50
2023-04-29T04:56:22.496Z,45.50
2023-04-29T04:59:15.705Z,45.40
2023-04-29T05:02:09.217Z,45.50
2023-04-29T05:05:02.489Z,45.50
2023-04-29T05:07:57.138Z,46.10
2023-04-29T05:10:50.627Z,45.50
2023-04-29T05:13:43.881Z,45.40
2023-04-29T05:16:36.951Z,45.50
2023-04-29T05:19:30.057Z,45.50
2023-04-29T05:22:22.917Z,45.50
2023-04-29T05:25:17.613Z,45.40
2023-04-29T05:28:10.938Z,45.40
2023-04-29T05:31:03.578Z,45.50
2023-04-29T05:33:56.656Z,45.40
2023-04-29T05:36:49.534Z,45.40
2023-04-29T05:39:42.803Z,45.40
2023-04-29T05:42:37.394Z,45.40
2023-04-29T05:45:30.739Z,45.30
2023-04-29T05:48:24.758Z,45.30
2023-04-29T05:51:17.543Z,45.40
2023-04-29T05:54:10.992Z,45.30
2023-04-29T05:57:04.001Z,45.30
2023-04-29T05:59:59.748Z,45.30
2023-04-29T06:02:58.721Z,45.30
2023-04-29T06:05:53.400Z,45.30
2023-04-29T06:08:46.723Z,45.20
2023-04-29T06:11:40.006Z,45.30
2023-04-29T06:14:32.787Z,45.20
2023-04-29T06:17:29.367Z,45.20
2023-04-29T06:20:22.899Z,45.20
2023-04-29T06:23:15.781Z,45.20
2023-04-29T06:26:08.974Z,45.10
2023-04-29T06:29:01.757Z,45.20
2023-04-29T06:31:56.120Z,45.10
2023-04-29T06:34:51.516Z,45.10
2023-04-29T06:37:44.922Z,45.10
2023-04-29T06:40:37.604Z,45.00
2023-04-29T06:43:31.069Z,45.10
2023-04-29T06:46:23.723Z,45.00
2023-04-29T06:49:17.211Z,45.00
2023-04-29T06:52:12.577Z,45.00
2023-04-29T06:55:06.888Z,45.00
2023-04-29T06:57:59.466Z,45.00
2023-04-29T07:00:52.989Z,44.90
2023-04-29T07:03:46.382Z,44.90
2023-04-29T07:06:40.379Z,44.90
2023-04-29T07:09:35.530Z,45.10
2023-04-29T07:12:28.966Z,45.00
2023-04-29T07:15:21.896Z,45.10
2023-04-29T07:18:14.725Z,45.20
2023-04-29T07:21:08.330Z,45.20
2023-04-29T07:24:04.791Z,45.20
2023-04-29T07:26:58.995Z,45.20
2023-04-29T07:29:51.675Z,45.30
2023-04-29T07:32:45.212Z,45.20
2023-04-29T07:35:41.628Z,45.20
2023-04-29T07:38:36.850Z,45.20
2023-04-29T07:41:29.586Z,45.20
2023-04-29T07:44:24.211Z,45.20
2023-04-29T07:47:17.610Z,45.20
2023-04-29T07:50:11.729Z,45.20
2023-04-29T07:53:05.092Z,45.20
2023-04-29T07:55:57.969Z,45.10
2023-04-29T07:58:51.133Z,45.10
2023-04-29T08:01:45.521Z,45.10
2023-04-29T08:04:41.522Z,45.10
2023-04-29T08:07:35.345Z,45.10
2023-04-29T08:10:29.184Z,45.10
2023-04-29T08:13:21.899Z,45.10
2023-04-29T08:16:15.313Z,45.10
2023-04-29T08:19:10.176Z,45.10
2023-04-29T08:22:04.211Z,45.10
2023-04-29T08:24:57.623Z,45.10
2023-04-29T08:27:50.691Z,45.10
2023-04-29T08:30:44.073Z,45.10
2023-04-29T08:33:37.024Z,45.10
2023-04-29T08:36:30.891Z,45.00
2023-04-29T08:39:24.088Z,45.00
2023-04-29T08:42:21.101Z,45.00
2023-04-29T08:45:17.287Z,45.00
2023-04-29T08:48:11.920Z,45.00
2023-04-29T08:51:05.589Z,45.00
2023-04-29T08:54:00.177Z,45.00
2023-04-29T08:56:53.392Z,45.00
2023-04-29T08:59:47.569Z,45.00
2023-04-29T09:02:47.261Z,45.00
2023-04-29T09:05:42.898Z,45.00
2023-04-29T09:08:36.368Z,45.00
2023-04-29T09:11:31.982Z,45.00
2023-04-29T09:14:25.642Z,45.00
2023-04-29T09:17:18.979Z,45.00
2023-04-29T09:20:28.925Z,45.00
2023-04-29T09:23:22.709Z,45.10
2023-04-29T09:26:16.502Z,45.00
2023-04-29T09:29:14.002Z,45.00
2023-04-29T09:32:22.279Z,45.00
2023-04-29T09:35:24.621Z,45.00
2023-04-29T09:38:18.694Z,44.90
2023-04-29T09:41:18.013Z,44.90
2023-04-29T09:44:12.424Z,44.90
2023-04-29T09:47:07.752Z,45.00
2023-04-29T09:50:13.750Z,45.60
2023-04-29T09:53:09.054Z,45.00
2023-04-29T09:56:03.787Z,44.90
2023-04-29T09:58:57.359Z,44.90
2023-04-29T10:01:55.097Z,44.90
2023-04-29T10:04:49.138Z,44.90
2023-04-29T10:07:42.551Z,44.90
2023-04-29T10:10:35.948Z,45.50
2023-04-29T10:13:30.449Z,44.90
2023-04-29T10:16:30.549Z,44.90
2023-04-29T10:19:34.269Z,44.90
2023-04-29T10:22:32.962Z,44.90
2023-04-29T10:25:27.907Z,44.90
2023-04-29T10:28:22.356Z,44.80
2023-04-29T10:31:18.591Z,44.90
2023-04-29T10:34:13.992Z,44.90
2023-04-29T10:37:11.252Z,44.90
2023-04-29T10:40:13.265Z,44.90
2023-04-29T10:43:06.808Z,44.90
2023-04-29T10:46:20.049Z,44.90
2023-04-29T10:49:13.235Z,44.80
2023-04-29T10:52:06.488Z,44.90
2023-04-29T10:55:08.550Z,44.80
2023-04-29T10:58:01.907Z,44.80
2023-04-29T11:00:55.197Z,44.80
2023-04-29T11:03:59.304Z,44.70
2023-04-29T11:06:54.885Z,44.70
2023-04-29T11:09:52.456Z,44.70
2023-04-29T11:12:47.562Z,44.70
2023-04-29T11:15:42.080Z,44.70
2023-04-29T11:18:36.275Z,44.60
2023-04-29T11:21:29.443Z,44.70
2023-04-29T11:24:23.237Z,44.70
2023-04-29T11:27:17.087Z,44.60
2023-04-29T11:30:12.651Z,44.60
2023-04-29T11:33:06.384Z,44.60
2023-04-29T11:35:59.891Z,44.70
2023-04-29T11:38:53.165Z,44.60
2023-04-29T11:41:46.077Z,44.60
2023-04-29T11:44:39.334Z,44.50
2023-04-29T11:47:34.461Z,44.50
2023-04-29T11:50:28.285Z,44.50
2023-04-29T11:53:22.113Z,44.60
2023-04-29T11:56:14.932Z,44.60
2023-04-29T11:59:08.539Z,44.60
2023-04-29T12:02:02.357Z,44.50
2023-04-29T12:04:58.593Z,44.50
2023-04-29T12:07:52.034Z,44.50
2023-04-29T12:10:45.007Z,44.50
2023-04-29T12:13:38.229Z,44.50
2023-04-29T12:16:31.817Z,44.60
2023-04-29T12:19:25.121Z,44.60
2023-04-29T12:22:21.057Z,44.60
2023-04-29T12:25:14.553Z,44.60
2023-04-29T12:28:12.582Z,44.70
2023-04-29T12:31:06.426Z,44.70
2023-04-29T12:34:00.171Z,44.80
2023-04-29T12:36:55.430Z,44.80
2023-04-29T12:39:51.433Z,44.70
2023-04-29T12:42:46.517Z,44.80
2023-04-29T12:45:40.652Z,44.70
2023-04-29T12:48:35.004Z,45.30
2023-04-29T12:51:28.412Z,44.60
2023-04-29T12:54:22.084Z,44.60
2023-04-29T12:57:16.659Z,44.70
2023-04-29T13:00:11.924Z,44.70
2023-04-29T13:03:05.722Z,45.10
2023-04-29T13:05:59.492Z,44.70
2023-04-29T13:08:53.038Z,44.60
2023-04-29T13:11:46.082Z,44.70
2023-04-29T13:14:40.593Z,44.70
2023-04-29T13:17:34.276Z,44.70
2023-04-29T13:20:27.169Z,44.60
2023-04-29T13:23:20.779Z,44.70
2023-04-29T13:26:14.159Z,44.70
2023-04-29T13:29:07.082Z,44.70
2023-04-29T13:32:02.010Z,44.60
2023-04-29T13:34:55.592Z,44.70
2023-04-29T13:37:49.257Z,44.60
2023-04-29T13:40:46.630Z,44.70
2023-04-29T13:43:40.953Z,44.70
2023-04-29T13:46:34.913Z,44.60
2023-04-29T13:49:58.643Z,44.70
2023-04-29T13:56:28.390Z,44.60
2023-04-29T13:59:34.391Z,44.60
2023-04-29T14:05:02.679Z,44.80
2023-04-29T14:07:56.372Z,44.80
2023-04-29T14:10:49.782Z,44.90
2023-04-29T14:13:42.784Z,45.00
2023-04-29T14:16:36.314Z,44.90
2023-04-29T14:19:29.329Z,45.10
2023-04-29T14:22:23.716Z,45.10
2023-04-29T14:25:17.748Z,45.10
2023-04-29T14:28:11.325Z,45.10
2023-04-29T14:31:04.520Z,45.10
2023-04-29T14:33:58.793Z,45.10
2023-04-29T14:36:52.492Z,45.10
2023-04-29T14:39:46.502Z,45.10
2023-04-29T14:42:40.104Z,45.10
2023-04-29T14:45:33.152Z,45.20
2023-04-29T14:48:26.152Z,45.20
2023-04-29T14:51:19.444Z,45.20
2023-04-29T14:54:12.560Z,45.30
2023-04-29T14:57:07.705Z,45.40
2023-04-29T15:00:01.571Z,45.40
2023-04-29T15:02:57.004Z,45.40
2023-04-29T15:05:51.070Z,45.30
2023-04-29T15:08:44.272Z,45.40
2023-04-29T15:11:37.281Z,45.30
2023-04-29T15:14:31.973Z,45.40
2023-04-29T15:17:25.531Z,45.30
2023-04-29T15:20:19.408Z,45.40
2023-04-29T15:23:12.449Z,45.40
2023-04-29T15:26:07.049Z,45.40
2023-04-29T15:29:00.138Z,45.30
2023-04-29T15:31:55.099Z,45.30
2023-04-29T15:34:48.575Z,45.30
2023-04-29T15:37:42.435Z,45.30
2023-04-29T15:40:35.524Z,45.20
2023-04-29T15:43:28.332Z,45.20
2023-04-29T15:46:21.711Z,45.80
2023-04-29T15:49:16.343Z,45.30
2023-04-29T15:52:09.192Z,45.10
2023-04-29T15:55:02.275Z,45.20
2023-04-29T15:57:55.079Z,45.40
2023-04-29T16:00:48.535Z,45.60
2023-04-29T16:03:42.388Z,45.70
2023-04-29T16:06:36.819Z,45.60
2023-04-29T16:09:30.235Z,45.70
2023-04-29T16:12:23.337Z,45.60
2023-04-29T16:15:16.650Z,45.70
2023-04-29T16:18:10.539Z,45.60
2023-04-29T16:21:04.109Z,45.50
2023-04-29T16:23:58.436Z,45.50
2023-04-29T16:26:51.328Z,45.50
2023-04-29T16:29:44.378Z,45.40
2023-04-29T16:32:37.200Z,45.30
2023-04-29T16:35:31.026Z,45.30
2023-04-29T16:38:24.814Z,45.30
2023-04-29T16:41:19.553Z,45.30
2023-04-29T16:44:12.693Z,45.30
2023-04-29T16:47:06.072Z,45.30
2023-04-29T16:49:59.208Z,45.20
2023-04-29T16:52:52.264Z,45.20
2023-04-29T16:55:46.208Z,45.10
2023-04-29T16:58:40.643Z,45.10
2023-04-29T17:01:34.656Z,45.10
2023-04-29T17:04:28.470Z,45.10
2023-04-29T17:07:21.453Z,45.00
2023-04-29T17:10:14.264Z,45.10
2023-04-29T17:13:07.430Z,45.00
2023-04-29T17:16:01.718Z,45.00
2023-04-29T17:18:55.570Z,45.00
2023-04-29T17:21:48.436Z,45.00
2023-04-29T17:24:44.732Z,44.90
2023-04-29T17:27:38.080Z,44.90
2023-04-29T17:30:31.506Z,44.80
2023-04-29T17:33:33.526Z,44.90
2023-04-29T17:36:26.815Z,44.90
2023-04-29T17:39:20.432Z,44.80
2023-04-29T17:42:13.292Z,44.80
2023-04-29T17:45:07.350Z,44.80
2023-04-29T17:48:00.101Z,44.80
2023-04-29T17:50:55.508Z,44.80
2023-04-29T17:53:48.663Z,44.80
2023-04-29T17:56:41.393Z,44.80
2023-04-29T17:59:34.658Z,44.80
2023-04-29T18:02:28.737Z,44.80
2023-04-29T18:05:22.582Z,45.40
2023-04-29T18:08:16.435Z,44.80
2023-04-29T18:11:09.766Z,44.80
2023-04-29T18:14:03.282Z,44.80
2023-04-29T18:16:56.583Z,45.40
2023-04-29T18:19:50.372Z,44.70
2023-04-29T18:22:43.877Z,44.70
2023-04-29T18:25:39.833Z,44.70
2023-04-29T18:28:33.911Z,44.70
2023-04-29T18:31:27.514Z,44.70
2023-04-29T18:34:20.385Z,44.70
2023-04-29T18:37:13.339Z,44.60
2023-04-29T18:40:08.126Z,44.70
2023-04-29T18:43:02.936Z,44.60
2023-04-29T18:45:57.032Z,44.60
2023-04-29T18:48:50.249Z,44.60
2023-04-29T18:51:46.505Z,44.60
2023-04-29T18:54:39.024Z,44.60
2023-04-29T18:57:34.834Z,44.60
2023-04-29T19:00:30.023Z,44.60
2023-04-29T19:03:23.756Z,44.60
2023-04-29T19:06:17.660Z,44.60
2023-04-29T19:09:11.980Z,44.60
2023-04-29T19:12:06.712Z,44.60
2023-04-29T19:15:00.448Z,44.80
2023-04-29T19:17:54.905Z,44.70
2023-04-29T19:20:48.880Z,44.60
2023-04-29T19:23:42.336Z,44.60
2023-04-29T19:26:36.500Z,44.60
2023-04-29T19:29:31.492Z,44.60
2023-04-29T19:32:24.421Z,44.50
2023-04-29T19:35:18.880Z,44.50
2023-04-29T19:38:12.312Z,45.20
2023-04-29T19:41:05.583Z,44.60
2023-04-29T19:43:58.944Z,44.50
2023-04-29T19:46:53.572Z,44.50
2023-04-29T19:49:46.433Z,44.60
2023-04-29T19:52:41.363Z,44.60
2023-04-29T19:55:34.632Z,44.60
2023-04-29T19:58:27.446Z,44.60
2023-04-29T20:01:20.773Z,44.50
2023-04-29T20:04:14.356Z,44.50
2023-04-29T20:07:07.675Z,44.60
2023-04-29T20:10:02.083Z,44.60
2023-04-29T20:12:55.682Z,44.60
2023-04-29T20:15:49.006Z,44.60
2023-04-29T20:18:42.370Z,44.60
2023-04-29T20:21:35.438Z,44.60
2023-04-29T20:24:28.596Z,44.60
2023-04-29T20:27:22.697Z,44.60
2023-04-29T20:30:15.819Z,44.60
2023-04-29T20:33:09.492Z,44.60
2023-04-29T20:36:06.577Z,44.60
2023-04-29T20:38:59.408Z,44.60
2023-04-29T20:41:56.197Z,44.60
2023-04-29T20:44:50.510Z,44.70
2023-04-29T20:47:43.995Z,44.70
2023-04-29T20:50:37.618Z,44.70
2023-04-29T20:53:31.222Z,44.80
2023-04-29T20:56:24.532Z,44.80
2023-04-29T20:59:17.190Z,44.90
2023-04-29T21:02:12.212Z,44.80
2023-04-29T21:05:06.649Z,44.80
2023-04-29T21:07:59.207Z,44.90
2023-04-29T21:10:52.588Z,45.50
2023-04-29T21:13:49.835Z,44.80
2023-04-29T21:16:48.309Z,44.80
2023-04-29T21:19:42.656Z,44.80
2023-04-29T21:22:35.550Z,44.90
2023-04-29T21:25:28.287Z,44.90
2023-04-29T21:28:21.110Z,44.80
2023-04-29T21:31:16.338Z,44.80
2023-04-29T21:34:09.984Z,44.90
2023-04-29T21:37:05.109Z,44.90
2023-04-29T21:40:00.327Z,44.80
2023-04-29T21:42:55.168Z,44.80
2023-04-29T21:45:50.162Z,44.80
2023-04-29T21:48:43.532Z,44.80
2023-04-29T21:51:37.163Z,44.80
2023-04-29T21:54:32.088Z,44.80
2023-04-29T21:57:36.085Z,44.60
2023-04-29T22:00:39.052Z,44.70
2023-04-29T22:03:32.945Z,44.80
2023-04-29T22:06:26.776Z,44.80
2023-04-29T22:09:19.745Z,44.80
2023-04-29T22:12:14.098Z,44.70
2023-04-29T22:15:17.104Z,44.60
2023-04-29T22:18:20.592Z,44.80
2023-04-29T22:21:13.548Z,44.80
2023-04-29T22:24:07.010Z,44.90
2023-04-29T22:27:00.909Z,44.90
2023-04-29T22:29:56.364Z,44.90
2023-04-29T22:32:49.739Z,44.80
2023-04-29T22:35:42.570Z,45.00
2023-04-29T22:38:37.881Z,44.90
2023-04-29T22:41:31.834Z,45.00
2023-04-29T22:44:26.097Z,45.00
2023-04-29T22:47:20.895Z,45.00
2023-04-29T22:50:15.335Z,45.00
2023-04-29T22:53:08.211Z,45.00
2023-04-29T22:56:02.025Z,45.00
2023-04-29T22:58:55.795Z,44.90
2023-04-29T23:01:48.727Z,44.90
2023-04-29T23:04:42.704Z,44.90
2023-04-29T23:07:35.565Z,44.90
2023-04-29T23:10:28.810Z,44.90
2023-04-29T23:13:21.726Z,44.80
2023-04-29T23:16:15.084Z,44.90
2023-04-29T23:19:08.747Z,44.80
2023-04-29T23:22:03.250Z,44.80
2023-04-29T23:24:56.854Z,44.80
2023-04-29T23:27:49.646Z,44.80
2023-04-29T23:30:42.894Z,44.70
2023-04-29T23:33:35.279Z,44.70
2023-04-29T23:36:28.649Z,44.70
2023-04-29T23:39:23.039Z,44.70
2023-04-29T23:42:16.869Z,44.70
2023-04-29T23:45:10.332Z,44.70
2023-04-29T23:48:03.882Z,44.70
2023-04-29T23:50:56.770Z,44.80
2023-04-29T23:53:49.874Z,44.80
2023-04-29T23:56:43.953Z,44.70
2023-04-29T23:59:36.556Z,44.80
